Latest METARs, TAFs and NOTAMs for ETSI


---------------------------------------------------------------------------
	(OBSERVATIONS)
ETSI 272120Z AUTO 19002KT 3600 // ////// 06/04 Q1022 ///=
ETSI 272020Z AUTO 07001KT 3900 // ////// 08/04 Q1022 ///=
ETSI 271920Z AUTO 04004KT 4100 // ////// 10/03 Q1022 ///=
---------------------------------------------------------------------------
	(FC)
TAF AMD ETSI 271409Z 2714/2723 34008KT 9999 NSW SCT040 SCT070
          TEMPO  2714/2720 02010KT 9999 NSW FEW040 BKN060
             CANCEL 1500=
---------------------------------------------------------------------------
	(TERMINAL AREA FORECAST)
AMD ETSI 271409Z 2714/2723 34008KT 9999 NSW SCT040 SCT070
    TEMPO  2714/2720 02010KT 9999 NSW FEW040 BKN060
    CANCEL 1500=
---------------------------------------------------------------------------
	(NOTAMS)


ETSI E1073/15 SPECIAL ACTIVITY AREA ESTABLISHED FOR AEROBATIC
    FLIGHTS 3NM RADIUS CENTERED AT 484200N 0113200E (INGOLSTADT).
    GND - 6000FT AMSL, SAT SUN 0700-SS AND MAY 01 14 25 AND JUN
    04 0700-SS, 18 APR 07:00 2015 UNTIL 12 JUL 19:30 2015. CREATED:
    14 APR 06:07 2015

ETSI P3673/15 AD ETSI: LIMITED RADAR COVERAGE BELOW 5000FT MSL
    DETAILED INFORMATION BY INGO RADAR. 22 MAY 06:40 2015 UNTIL
    21 AUG 12:00 2015. CREATED: 22 MAY 06:42 2015

ETSI P3675/15 AD ETSI: TACAN APCH RWY07R SUSPENDED. 22 MAY 06:41
    2015 UNTIL 21 AUG 12:00 2015. CREATED: 22 MAY 06:44 2015

ETSI P3677/15 AD ETSI: PAR RWY25R/07L OUT OF SERVICE. 22 MAY
    06:45 2015 UNTIL 21 AUG 12:00 2015. CREATED: 22 MAY 06:48
    2015

ETSI P3678/15 AD ETSI: NO SRA POSSIBLE. 22 MAY 06:43 2015 UNTIL
    21 AUG 12:00 2015. CREATED: 22 MAY 06:49 2015

ETSI P3679/15 AD ETSI: PAR RWY25L/07R OUT OF SERVICE. 22 MAY
    06:47 2015 UNTIL 21 AUG 12:00 2015. CREATED: 22 MAY 06:56
    2015

---------------------------------------------------------------------------